sensor_id;sensor_type;location;lat;lon;timestamp;P1;durP1;ratioP1;P2;durP2;ratioP2
13083;SDS011;6608;48.790;9.198;2023-07-20T00:01:10;128.60;;;64.17;;
13083;SDS011;6608;48.790;9.198;2023-07-20T00:03:36;90.10;;;59.40;;
13083;SDS011;6608;48.790;9.198;2023-07-20T00:06:03;90.07;;;58.83;;
13083;SDS011;6608;48.790;9.198;2023-07-20T00:08:30;91.90;;;59.27;;
13083;SDS011;6608;48.790;9.198;2023-07-20T00:10:58;138.20;;;65.57;;
13083;SDS011;6608;48.790;9.198;2023-07-20T00:13:24;126.73;;;62.93;;
13083;SDS011;6608;48.790;9.198;2023-07-20T00:15:51;88.90;;;58.80;;
13083;SDS011;6608;48.790;9.198;2023-07-20T00:18:17;87.33;;;58.73;;
13083;SDS011;6608;48.790;9.198;2023-07-20T00:20:46;88.10;;;58.53;;
13083;SDS011;6608;48.790;9.198;2023-07-20T00:23:12;89.93;;;58.33;;
13083;SDS011;6608;48.790;9.198;2023-07-20T00:25:39;127.37;;;63.30;;
13083;SDS011;6608;48.790;9.198;2023-07-20T00:28:06;111.50;;;62.53;;
13083;SDS011;6608;48.790;9.198;2023-07-20T00:30:33;97.50;;;58.77;;
13083;SDS011;6608;48.790;9.198;2023-07-20T00:32:59;111.50;;;61.23;;
13083;SDS011;6608;48.790;9.198;2023-07-20T00:35:26;129.33;;;63.03;;
13083;SDS011;6608;48.790;9.198;2023-07-20T00:37:52;152.33;;;66.80;;
13083;SDS011;6608;48.790;9.198;2023-07-20T00:40:19;125.60;;;63.10;;
13083;SDS011;6608;48.790;9.198;2023-07-20T00:42:45;90.43;;;58.50;;
13083;SDS011;6608;48.790;9.198;2023-07-20T00:45:15;92.37;;;59.13;;
13083;SDS011;6608;48.790;9.198;2023-07-20T00:47:42;132.40;;;63.93;;
13083;SDS011;6608;48.790;9.198;2023-07-20T00:50:08;135.83;;;63.77;;
13083;SDS011;6608;48.790;9.198;2023-07-20T00:52:35;131.07;;;63.70;;
13083;SDS011;6608;48.790;9.198;2023-07-20T00:55:04;88.33;;;58.40;;
13083;SDS011;6608;48.790;9.198;2023-07-20T00:57:31;87.27;;;58.40;;
13083;SDS011;6608;48.790;9.198;2023-07-20T00:59:58;115.57;;;61.97;;
13083;SDS011;6608;48.790;9.198;2023-07-20T01:02:25;130.60;;;63.53;;
13083;SDS011;6608;48.790;9.198;2023-07-20T01:04:52;85.17;;;58.33;;
13083;SDS011;6608;48.790;9.198;2023-07-20T01:07:21;87.13;;;59.63;;
13083;SDS011;6608;48.790;9.198;2023-07-20T01:09:52;86.60;;;58.33;;
13083;SDS011;6608;48.790;9.198;2023-07-20T01:12:22;92.20;;;59.80;;
13083;SDS011;6608;48.790;9.198;2023-07-20T01:14:50;120.20;;;62.70;;
13083;SDS011;6608;48.790;9.198;2023-07-20T01:17:17;131.83;;;64.60;;
13083;SDS011;6608;48.790;9.198;2023-07-20T01:19:45;89.67;;;58.60;;
13083;SDS011;6608;48.790;9.198;2023-07-20T01:22:15;139.93;;;64.60;;
13083;SDS011;6608;48.790;9.198;2023-07-20T01:27:49;133.33;;;63.33;;
13083;SDS011;6608;48.790;9.198;2023-07-20T01:30:31;136.67;;;63.37;;
13083;SDS011;6608;48.790;9.198;2023-07-20T01:33:02;89.13;;;59.00;;
13083;SDS011;6608;48.790;9.198;2023-07-20T01:35:29;145.43;;;65.37;;
13083;SDS011;6608;48.790;9.198;2023-07-20T01:37:56;128.93;;;63.13;;
13083;SDS011;6608;48.790;9.198;2023-07-20T01:40:24;100.03;;;60.00;;
13083;SDS011;6608;48.790;9.198;2023-07-20T01:42:51;133.47;;;63.20;;
13083;SDS011;6608;48.790;9.198;2023-07-20T01:45:18;132.50;;;63.67;;
13083;SDS011;6608;48.790;9.198;2023-07-20T01:47:44;87.43;;;58.20;;
13083;SDS011;6608;48.790;9.198;2023-07-20T01:50:13;134.73;;;64.80;;
13083;SDS011;6608;48.790;9.198;2023-07-20T01:52:40;89.73;;;58.40;;
13083;SDS011;6608;48.790;9.198;2023-07-20T01:55:06;133.17;;;63.50;;
13083;SDS011;6608;48.790;9.198;2023-07-20T01:57:33;91.73;;;59.50;;
13083;SDS011;6608;48.790;9.198;2023-07-20T01:59:59;132.43;;;64.23;;
13083;SDS011;6608;48.790;9.198;2023-07-20T02:02:26;89.57;;;59.40;;
13083;SDS011;6608;48.790;9.198;2023-07-20T02:04:53;86.83;;;58.13;;
13083;SDS011;6608;48.790;9.198;2023-07-20T02:07:21;136.30;;;63.20;;
13083;SDS011;6608;48.790;9.198;2023-07-20T02:09:47;86.93;;;58.03;;
13083;SDS011;6608;48.790;9.198;2023-07-20T02:12:14;115.70;;;62.30;;
13083;SDS011;6608;48.790;9.198;2023-07-20T02:14:40;133.17;;;64.03;;
13083;SDS011;6608;48.790;9.198;2023-07-20T02:17:06;86.37;;;58.27;;
13083;SDS011;6608;48.790;9.198;2023-07-20T02:19:35;85.30;;;58.23;;
13083;SDS011;6608;48.790;9.198;2023-07-20T02:22:02;84.80;;;58.27;;
13083;SDS011;6608;48.790;9.198;2023-07-20T02:24:30;86.77;;;59.57;;
13083;SDS011;6608;48.790;9.198;2023-07-20T02:26:56;85.10;;;57.70;;
13083;SDS011;6608;48.790;9.198;2023-07-20T02:29:22;85.70;;;57.67;;
13083;SDS011;6608;48.790;9.198;2023-07-20T02:31:49;86.27;;;58.07;;
13083;SDS011;6608;48.790;9.198;2023-07-20T02:34:15;84.67;;;57.87;;
13083;SDS011;6608;48.790;9.198;2023-07-20T02:36:42;89.77;;;58.23;;
13083;SDS011;6608;48.790;9.198;2023-07-20T02:39:08;142.17;;;64.17;;
13083;SDS011;6608;48.790;9.198;2023-07-20T02:41:36;131.17;;;63.47;;
13083;SDS011;6608;48.790;9.198;2023-07-20T02:44:03;87.13;;;58.57;;
13083;SDS011;6608;48.790;9.198;2023-07-20T02:46:29;84.93;;;57.77;;
13083;SDS011;6608;48.790;9.198;2023-07-20T02:48:56;90.30;;;57.97;;
13083;SDS011;6608;48.790;9.198;2023-07-20T02:51:22;137.83;;;64.00;;
13083;SDS011;6608;48.790;9.198;2023-07-20T02:53:49;133.83;;;63.37;;
13083;SDS011;6608;48.790;9.198;2023-07-20T02:56:15;87.83;;;58.60;;
13083;SDS011;6608;48.790;9.198;2023-07-20T02:58:44;87.07;;;58.23;;
13083;SDS011;6608;48.790;9.198;2023-07-20T03:01:11;90.23;;;59.47;;
13083;SDS011;6608;48.790;9.198;2023-07-20T03:03:38;103.67;;;60.43;;
13083;SDS011;6608;48.790;9.198;2023-07-20T03:06:04;125.47;;;62.90;;
13083;SDS011;6608;48.790;9.198;2023-07-20T03:08:31;88.80;;;58.30;;
13083;SDS011;6608;48.790;9.198;2023-07-20T03:10:57;131.93;;;63.23;;
13083;SDS011;6608;48.790;9.198;2023-07-20T03:13:23;128.50;;;62.63;;
13083;SDS011;6608;48.790;9.198;2023-07-20T03:15:52;136.13;;;63.37;;
13083;SDS011;6608;48.790;9.198;2023-07-20T03:18:19;131.67;;;62.67;;
13083;SDS011;6608;48.790;9.198;2023-07-20T03:20:45;85.43;;;57.53;;
13083;SDS011;6608;48.790;9.198;2023-07-20T03:23:13;90.90;;;57.97;;
13083;SDS011;6608;48.790;9.198;2023-07-20T03:25:40;131.57;;;62.67;;
13083;SDS011;6608;48.790;9.198;2023-07-20T03:28:06;133.17;;;63.47;;
13083;SDS011;6608;48.790;9.198;2023-07-20T03:30:32;129.10;;;62.93;;
13083;SDS011;6608;48.790;9.198;2023-07-20T03:33:00;119.73;;;63.17;;
13083;SDS011;6608;48.790;9.198;2023-07-20T03:35:28;125.60;;;62.20;;
13083;SDS011;6608;48.790;9.198;2023-07-20T03:37:54;123.47;;;63.17;;
13083;SDS011;6608;48.790;9.198;2023-07-20T03:40:21;128.73;;;62.80;;
13083;SDS011;6608;48.790;9.198;2023-07-20T03:42:47;127.60;;;62.30;;
13083;SDS011;6608;48.790;9.198;2023-07-20T03:45:14;95.20;;;58.60;;
13083;SDS011;6608;48.790;9.198;2023-07-20T03:47:40;117.10;;;61.87;;
13083;SDS011;6608;48.790;9.198;2023-07-20T03:50:09;90.40;;;58.53;;
13083;SDS011;6608;48.790;9.198;2023-07-20T03:52:35;123.53;;;61.77;;
13083;SDS011;6608;48.790;9.198;2023-07-20T03:55:02;132.07;;;63.60;;
13083;SDS011;6608;48.790;9.198;2023-07-20T03:57:28;120.33;;;61.97;;
13083;SDS011;6608;48.790;9.198;2023-07-20T03:59:57;88.83;;;57.40;;
13083;SDS011;6608;48.790;9.198;2023-07-20T04:02:22;128.00;;;62.93;;
13083;SDS011;6608;48.790;9.198;2023-07-20T04:04:49;124.23;;;62.90;;
13083;SDS011;6608;48.790;9.198;2023-07-20T04:07:17;127.27;;;62.83;;
13083;SDS011;6608;48.790;9.198;2023-07-20T04:09:43;124.63;;;62.00;;
13083;SDS011;6608;48.790;9.198;2023-07-20T04:12:10;133.07;;;63.33;;
13083;SDS011;6608;48.790;9.198;2023-07-20T04:14:36;127.93;;;63.07;;
13083;SDS011;6608;48.790;9.198;2023-07-20T04:17:03;132.63;;;61.73;;
13083;SDS011;6608;48.790;9.198;2023-07-20T04:19:30;136.30;;;62.40;;
13083;SDS011;6608;48.790;9.198;2023-07-20T04:21:56;132.43;;;63.10;;
13083;SDS011;6608;48.790;9.198;2023-07-20T04:24:24;129.00;;;62.80;;
13083;SDS011;6608;48.790;9.198;2023-07-20T04:26:51;129.87;;;62.50;;
13083;SDS011;6608;48.790;9.198;2023-07-20T04:29:17;132.37;;;62.57;;
13083;SDS011;6608;48.790;9.198;2023-07-20T04:31:43;138.40;;;63.20;;
13083;SDS011;6608;48.790;9.198;2023-07-20T04:34:10;134.40;;;63.73;;
13083;SDS011;6608;48.790;9.198;2023-07-20T04:36:36;131.50;;;63.53;;
13083;SDS011;6608;48.790;9.198;2023-07-20T04:39:03;134.47;;;62.87;;
13083;SDS011;6608;48.790;9.198;2023-07-20T04:41:31;133.37;;;62.77;;
13083;SDS011;6608;48.790;9.198;2023-07-20T04:43:57;136.80;;;63.27;;
13083;SDS011;6608;48.790;9.198;2023-07-20T04:46:23;134.07;;;62.80;;
13083;SDS011;6608;48.790;9.198;2023-07-20T04:48:50;132.20;;;62.77;;
13083;SDS011;6608;48.790;9.198;2023-07-20T04:51:16;133.67;;;62.57;;
13083;SDS011;6608;48.790;9.198;2023-07-20T04:53:45;132.70;;;63.03;;
13083;SDS011;6608;48.790;9.198;2023-07-20T04:56:12;105.80;;;60.60;;
13083;SDS011;6608;48.790;9.198;2023-07-20T04:58:40;103.07;;;60.43;;
13083;SDS011;6608;48.790;9.198;2023-07-20T05:01:07;109.20;;;60.90;;
13083;SDS011;6608;48.790;9.198;2023-07-20T05:03:33;134.07;;;64.83;;
13083;SDS011;6608;48.790;9.198;2023-07-20T05:06:00;135.17;;;63.73;;
13083;SDS011;6608;48.790;9.198;2023-07-20T05:08:26;91.20;;;59.47;;
13083;SDS011;6608;48.790;9.198;2023-07-20T05:10:53;114.73;;;61.67;;
13083;SDS011;6608;48.790;9.198;2023-07-20T05:13:19;130.97;;;63.43;;
13083;SDS011;6608;48.790;9.198;2023-07-20T05:15:47;98.60;;;59.63;;
13083;SDS011;6608;48.790;9.198;2023-07-20T05:18:17;132.53;;;64.20;;
13083;SDS011;6608;48.790;9.198;2023-07-20T05:20:45;123.67;;;62.47;;
13083;SDS011;6608;48.790;9.198;2023-07-20T05:23:12;128.10;;;62.43;;
13083;SDS011;6608;48.790;9.198;2023-07-20T05:25:38;133.53;;;63.00;;
13083;SDS011;6608;48.790;9.198;2023-07-20T05:28:04;136.70;;;64.03;;
13083;SDS011;6608;48.790;9.198;2023-07-20T05:30:31;137.27;;;64.70;;
13083;SDS011;6608;48.790;9.198;2023-07-20T05:32:59;136.17;;;63.60;;
13083;SDS011;6608;48.790;9.198;2023-07-20T05:35:25;139.73;;;64.40;;
13083;SDS011;6608;48.790;9.198;2023-07-20T05:37:52;145.53;;;64.50;;
13083;SDS011;6608;48.790;9.198;2023-07-20T05:40:18;143.50;;;64.67;;
13083;SDS011;6608;48.790;9.198;2023-07-20T05:42:46;138.53;;;64.47;;
13083;SDS011;6608;48.790;9.198;2023-07-20T05:45:13;138.17;;;64.30;;
13083;SDS011;6608;48.790;9.198;2023-07-20T05:47:40;138.73;;;64.60;;
13083;SDS011;6608;48.790;9.198;2023-07-20T05:50:08;130.40;;;63.83;;
13083;SDS011;6608;48.790;9.198;2023-07-20T05:52:34;136.07;;;64.00;;
13083;SDS011;6608;48.790;9.198;2023-07-20T05:55:01;133.00;;;63.47;;
13083;SDS011;6608;48.790;9.198;2023-07-20T05:57:28;136.60;;;64.00;;
13083;SDS011;6608;48.790;9.198;2023-07-20T05:59:54;148.10;;;64.93;;
13083;SDS011;6608;48.790;9.198;2023-07-20T06:02:21;136.63;;;64.37;;
13083;SDS011;6608;48.790;9.198;2023-07-20T06:04:47;148.23;;;65.27;;
13083;SDS011;6608;48.790;9.198;2023-07-20T06:07:16;144.50;;;64.80;;
13083;SDS011;6608;48.790;9.198;2023-07-20T06:09:42;146.07;;;65.20;;
13083;SDS011;6608;48.790;9.198;2023-07-20T06:12:09;137.40;;;66.03;;
13083;SDS011;6608;48.790;9.198;2023-07-20T06:14:35;140.80;;;65.17;;
13083;SDS011;6608;48.790;9.198;2023-07-20T06:17:02;143.83;;;65.47;;
13083;SDS011;6608;48.790;9.198;2023-07-20T06:19:28;148.47;;;66.67;;
13083;SDS011;6608;48.790;9.198;2023-07-20T06:21:54;139.00;;;64.90;;
13083;SDS011;6608;48.790;9.198;2023-07-20T06:24:22;146.20;;;66.10;;
13083;SDS011;6608;48.790;9.198;2023-07-20T06:26:49;146.37;;;65.20;;
13083;SDS011;6608;48.790;9.198;2023-07-20T06:29:15;97.10;;;60.60;;
13083;SDS011;6608;48.790;9.198;2023-07-20T06:31:41;140.87;;;64.73;;
13083;SDS011;6608;48.790;9.198;2023-07-20T06:34:08;147.80;;;64.97;;
13083;SDS011;6608;48.790;9.198;2023-07-20T06:36:34;144.87;;;66.23;;
13083;SDS011;6608;48.790;9.198;2023-07-20T06:39:01;149.93;;;67.17;;
13083;SDS011;6608;48.790;9.198;2023-07-20T06:41:29;141.33;;;64.87;;
13083;SDS011;6608;48.790;9.198;2023-07-20T06:43:55;150.30;;;67.40;;
13083;SDS011;6608;48.790;9.198;2023-07-20T06:46:23;146.37;;;67.77;;
13083;SDS011;6608;48.790;9.198;2023-07-20T06:48:50;114.03;;;63.83;;
13083;SDS011;6608;48.790;9.198;2023-07-20T06:51:16;147.30;;;65.23;;
13083;SDS011;6608;48.790;9.198;2023-07-20T06:53:43;145.93;;;65.07;;
13083;SDS011;6608;48.790;9.198;2023-07-20T06:56:09;147.10;;;66.70;;
13083;SDS011;6608;48.790;9.198;2023-07-20T06:58:37;144.30;;;65.37;;
13083;SDS011;6608;48.790;9.198;2023-07-20T07:01:04;146.83;;;65.37;;
13083;SDS011;6608;48.790;9.198;2023-07-20T07:03:31;139.47;;;65.17;;
13083;SDS011;6608;48.790;9.198;2023-07-20T07:05:57;127.03;;;63.67;;
13083;SDS011;6608;48.790;9.198;2023-07-20T07:08:23;144.20;;;65.77;;
13083;SDS011;6608;48.790;9.198;2023-07-20T07:10:50;140.27;;;65.77;;
13083;SDS011;6608;48.790;9.198;2023-07-20T07:13:16;147.70;;;66.07;;
13083;SDS011;6608;48.790;9.198;2023-07-20T07:15:44;136.10;;;65.27;;
13083;SDS011;6608;48.790;9.198;2023-07-20T07:18:11;114.23;;;62.57;;
13083;SDS011;6608;48.790;9.198;2023-07-20T07:20:38;136.93;;;65.67;;
13083;SDS011;6608;48.790;9.198;2023-07-20T07:23:04;133.13;;;64.47;;
13083;SDS011;6608;48.790;9.198;2023-07-20T07:25:30;144.80;;;66.07;;
13083;SDS011;6608;48.790;9.198;2023-07-20T07:27:57;99.43;;;62.17;;
13083;SDS011;6608;48.790;9.198;2023-07-20T07:30:23;139.07;;;65.97;;
13083;SDS011;6608;48.790;9.198;2023-07-20T07:32:51;133.17;;;64.93;;
13083;SDS011;6608;48.790;9.198;2023-07-20T07:35:18;134.43;;;65.00;;
13083;SDS011;6608;48.790;9.198;2023-07-20T07:37:44;135.97;;;64.83;;
13083;SDS011;6608;48.790;9.198;2023-07-20T07:40:11;133.37;;;64.70;;
13083;SDS011;6608;48.790;9.198;2023-07-20T07:42:38;130.43;;;64.57;;
13083;SDS011;6608;48.790;9.198;2023-07-20T07:45:04;139.50;;;66.00;;
13083;SDS011;6608;48.790;9.198;2023-07-20T07:47:31;140.70;;;65.57;;
13083;SDS011;6608;48.790;9.198;2023-07-20T07:49:59;136.47;;;65.07;;
13083;SDS011;6608;48.790;9.198;2023-07-20T07:52:26;136.83;;;65.83;;
13083;SDS011;6608;48.790;9.198;2023-07-20T07:54:52;139.27;;;65.90;;
13083;SDS011;6608;48.790;9.198;2023-07-20T07:57:18;138.67;;;66.23;;
13083;SDS011;6608;48.790;9.198;2023-07-20T07:59:45;135.20;;;65.23;;
13083;SDS011;6608;48.790;9.198;2023-07-20T08:02:11;140.13;;;66.73;;
13083;SDS011;6608;48.790;9.198;2023-07-20T08:04:38;137.33;;;66.63;;
13083;SDS011;6608;48.790;9.198;2023-07-20T08:07:06;97.77;;;63.00;;
13083;SDS011;6608;48.790;9.198;2023-07-20T08:09:32;138.10;;;68.50;;
13083;SDS011;6608;48.790;9.198;2023-07-20T08:11:59;138.03;;;67.00;;
13083;SDS011;6608;48.790;9.198;2023-07-20T08:14:25;145.43;;;69.37;;
13083;SDS011;6608;48.790;9.198;2023-07-20T08:16:52;137.37;;;66.87;;
13083;SDS011;6608;48.790;9.198;2023-07-20T08:19:19;139.63;;;67.63;;
13083;SDS011;6608;48.790;9.198;2023-07-20T08:21:46;135.83;;;66.20;;
13083;SDS011;6608;48.790;9.198;2023-07-20T08:24:23;136.80;;;66.80;;
13083;SDS011;6608;48.790;9.198;2023-07-20T08:26:49;136.93;;;66.80;;
13083;SDS011;6608;48.790;9.198;2023-07-20T08:29:15;135.97;;;65.97;;
13083;SDS011;6608;48.790;9.198;2023-07-20T08:31:42;141.57;;;67.33;;
13083;SDS011;6608;48.790;9.198;2023-07-20T08:34:08;134.47;;;66.43;;
13083;SDS011;6608;48.790;9.198;2023-07-20T08:36:35;146.50;;;67.33;;
13083;SDS011;6608;48.790;9.198;2023-07-20T08:39:01;120.47;;;64.43;;
13083;SDS011;6608;48.790;9.198;2023-07-20T08:41:30;134.93;;;66.10;;
13083;SDS011;6608;48.790;9.198;2023-07-20T08:43:56;92.77;;;60.27;;
13083;SDS011;6608;48.790;9.198;2023-07-20T08:46:23;114.03;;;64.23;;
13083;SDS011;6608;48.790;9.198;2023-07-20T08:48:50;130.77;;;67.43;;
13083;SDS011;6608;48.790;9.198;2023-07-20T08:51:23;131.90;;;67.83;;
13083;SDS011;6608;48.790;9.198;2023-07-20T08:53:53;136.07;;;67.83;;
13083;SDS011;6608;48.790;9.198;2023-07-20T08:56:19;133.65;;;67.95;;
13083;SDS011;6608;48.790;9.198;2023-07-20T08:58:48;133.20;;;69.60;;
13083;SDS011;6608;48.790;9.198;2023-07-20T09:01:14;143.98;;;68.82;;
13083;SDS011;6608;48.790;9.198;2023-07-20T09:03:41;131.95;;;68.28;;
13083;SDS011;6608;48.790;9.198;2023-07-20T09:06:08;89.75;;;61.92;;
13083;SDS011;6608;48.790;9.198;2023-07-20T09:08:37;112.70;;;64.53;;
13083;SDS011;6608;48.790;9.198;2023-07-20T09:11:03;130.50;;;67.88;;
13083;SDS011;6608;48.790;9.198;2023-07-20T09:13:31;131.10;;;67.70;;
13083;SDS011;6608;48.790;9.198;2023-07-20T09:15:59;128.27;;;67.70;;
13083;SDS011;6608;48.790;9.198;2023-07-20T09:18:26;126.32;;;67.30;;
13083;SDS011;6608;48.790;9.198;2023-07-20T09:20:53;137.77;;;68.33;;
13083;SDS011;6608;48.790;9.198;2023-07-20T09:23:29;137.63;;;68.17;;
13083;SDS011;6608;48.790;9.198;2023-07-20T09:25:57;127.90;;;67.17;;
13083;SDS011;6608;48.790;9.198;2023-07-20T09:28:23;94.47;;;61.93;;
13083;SDS011;6608;48.790;9.198;2023-07-20T09:30:49;137.00;;;71.07;;
13083;SDS011;6608;48.790;9.198;2023-07-20T09:33:20;135.80;;;68.07;;
13083;SDS011;6608;48.790;9.198;2023-07-20T09:35:47;123.90;;;67.15;;
13083;SDS011;6608;48.790;9.198;2023-07-20T09:38:13;89.28;;;61.70;;
13083;SDS011;6608;48.790;9.198;2023-07-20T09:40:40;92.75;;;62.55;;
13083;SDS011;6608;48.790;9.198;2023-07-20T09:43:07;96.65;;;63.00;;
13083;SDS011;6608;48.790;9.198;2023-07-20T09:45:34;140.57;;;69.03;;
13083;SDS011;6608;48.790;9.198;2023-07-20T09:48:10;131.82;;;67.82;;
13083;SDS011;6608;48.790;9.198;2023-07-20T09:50:50;131.38;;;67.50;;
13083;SDS011;6608;48.790;9.198;2023-07-20T09:53:17;140.32;;;69.32;;
13083;SDS011;6608;48.790;9.198;2023-07-20T09:55:44;123.32;;;67.47;;
13083;SDS011;6608;48.790;9.198;2023-07-20T09:58:11;88.45;;;62.00;;
13083;SDS011;6608;48.790;9.198;2023-07-20T10:00:38;89.40;;;62.33;;
13083;SDS011;6608;48.790;9.198;2023-07-20T10:03:05;95.75;;;63.40;;
13083;SDS011;6608;48.790;9.198;2023-07-20T10:05:33;134.38;;;68.13;;
13083;SDS011;6608;48.790;9.198;2023-07-20T10:08:01;132.90;;;68.40;;
13083;SDS011;6608;48.790;9.198;2023-07-20T10:13:32;124.25;;;66.70;;
13083;SDS011;6608;48.790;9.198;2023-07-20T10:16:03;132.18;;;68.68;;
13083;SDS011;6608;48.790;9.198;2023-07-20T10:18:31;94.00;;;62.75;;
13083;SDS011;6608;48.790;9.198;2023-07-20T10:20:59;113.50;;;66.25;;
13083;SDS011;6608;48.790;9.198;2023-07-20T10:23:28;131.82;;;68.93;;
13083;SDS011;6608;48.790;9.198;2023-07-20T10:25:55;132.05;;;69.25;;
13083;SDS011;6608;48.790;9.198;2023-07-20T10:28:21;135.48;;;70.30;;
13083;SDS011;6608;48.790;9.198;2023-07-20T10:30:52;123.03;;;68.05;;
13083;SDS011;6608;48.790;9.198;2023-07-20T10:33:19;90.25;;;62.90;;
13083;SDS011;6608;48.790;9.198;2023-07-20T10:35:52;136.77;;;69.13;;
13083;SDS011;6608;48.790;9.198;2023-07-20T10:38:19;130.38;;;69.55;;
13083;SDS011;6608;48.790;9.198;2023-07-20T10:40:55;95.00;;;63.65;;
13083;SDS011;6608;48.790;9.198;2023-07-20T10:43:23;130.68;;;69.03;;
13083;SDS011;6608;48.790;9.198;2023-07-20T10:45:51;131.93;;;68.75;;
13083;SDS011;6608;48.790;9.198;2023-07-20T10:48:20;139.70;;;69.72;;
13083;SDS011;6608;48.790;9.198;2023-07-20T10:53:29;94.55;;;64.20;;
13083;SDS011;6608;48.790;9.198;2023-07-20T10:56:09;137.32;;;70.07;;
13083;SDS011;6608;48.790;9.198;2023-07-20T10:58:38;141.68;;;70.30;;
13083;SDS011;6608;48.790;9.198;2023-07-20T11:01:06;132.48;;;69.50;;
13083;SDS011;6608;48.790;9.198;2023-07-20T11:03:33;95.90;;;62.92;;
13083;SDS011;6608;48.790;9.198;2023-07-20T11:08:42;143.07;;;70.22;;
13083;SDS011;6608;48.790;9.198;2023-07-20T11:11:22;135.07;;;69.32;;
13083;SDS011;6608;48.790;9.198;2023-07-20T11:13:54;94.50;;;63.38;;
13083;SDS011;6608;48.790;9.198;2023-07-20T11:16:23;138.52;;;70.88;;
13083;SDS011;6608;48.790;9.198;2023-07-20T11:18:57;137.68;;;70.28;;
13083;SDS011;6608;48.790;9.198;2023-07-20T11:21:24;132.05;;;69.07;;
13083;SDS011;6608;48.790;9.198;2023-07-20T11:23:53;90.78;;;64.13;;
13083;SDS011;6608;48.790;9.198;2023-07-20T11:26:19;105.43;;;66.57;;
13083;SDS011;6608;48.790;9.198;2023-07-20T11:28:49;136.50;;;70.45;;
13083;SDS011;6608;48.790;9.198;2023-07-20T11:31:17;136.05;;;69.72;;
13083;SDS011;6608;48.790;9.198;2023-07-20T11:33:43;135.38;;;70.35;;
13083;SDS011;6608;48.790;9.198;2023-07-20T11:36:09;101.30;;;65.78;;
13083;SDS011;6608;48.790;9.198;2023-07-20T11:38:36;138.88;;;70.32;;
13083;SDS011;6608;48.790;9.198;2023-07-20T11:41:02;128.68;;;69.35;;
13083;SDS011;6608;48.790;9.198;2023-07-20T11:43:29;140.35;;;69.90;;
13083;SDS011;6608;48.790;9.198;2023-07-20T11:45:57;139.25;;;70.72;;
13083;SDS011;6608;48.790;9.198;2023-07-20T11:48:23;144.52;;;71.57;;
13083;SDS011;6608;48.790;9.198;2023-07-20T11:50:50;106.22;;;66.03;;
13083;SDS011;6608;48.790;9.198;2023-07-20T11:53:16;106.45;;;66.88;;
13083;SDS011;6608;48.790;9.198;2023-07-20T11:55:43;139.52;;;70.82;;
13083;SDS011;6608;48.790;9.198;2023-07-20T11:58:10;140.75;;;71.07;;
13083;SDS011;6608;48.790;9.198;2023-07-20T12:00:37;146.13;;;71.75;;
13083;SDS011;6608;48.790;9.198;2023-07-20T12:03:06;117.05;;;67.00;;
13083;SDS011;6608;48.790;9.198;2023-07-20T12:05:33;134.15;;;68.72;;
13083;SDS011;6608;48.790;9.198;2023-07-20T12:07:59;94.70;;;64.88;;
13083;SDS011;6608;48.790;9.198;2023-07-20T12:10:27;139.80;;;70.85;;
13083;SDS011;6608;48.790;9.198;2023-07-20T12:12:53;148.68;;;72.18;;
13083;SDS011;6608;48.790;9.198;2023-07-20T12:15:20;159.38;;;73.13;;
13083;SDS011;6608;48.790;9.198;2023-07-20T12:17:49;135.45;;;71.55;;
13083;SDS011;6608;48.790;9.198;2023-07-20T12:20:25;93.60;;;64.60;;
13083;SDS011;6608;48.790;9.198;2023-07-20T12:22:52;128.05;;;69.53;;
13083;SDS011;6608;48.790;9.198;2023-07-20T12:25:19;130.95;;;69.57;;
13083;SDS011;6608;48.790;9.198;2023-07-20T12:27:47;87.90;;;63.30;;
13083;SDS011;6608;48.790;9.198;2023-07-20T12:30:13;87.93;;;62.58;;
13083;SDS011;6608;48.790;9.198;2023-07-20T12:32:40;93.78;;;63.45;;
13083;SDS011;6608;48.790;9.198;2023-07-20T12:35:07;140.55;;;70.28;;
13083;SDS011;6608;48.790;9.198;2023-07-20T12:37:35;130.15;;;69.28;;
13083;SDS011;6608;48.790;9.198;2023-07-20T12:40:01;140.35;;;70.05;;
13083;SDS011;6608;48.790;9.198;2023-07-20T12:42:29;88.55;;;62.60;;
13083;SDS011;6608;48.790;9.198;2023-07-20T12:44:55;93.18;;;63.67;;
13083;SDS011;6608;48.790;9.198;2023-07-20T12:47:22;94.10;;;64.22;;
13083;SDS011;6608;48.790;9.198;2023-07-20T12:49:48;151.30;;;76.70;;
13083;SDS011;6608;48.790;9.198;2023-07-20T12:52:17;138.40;;;69.03;;
13083;SDS011;6608;48.790;9.198;2023-07-20T12:54:45;93.45;;;63.10;;
13083;SDS011;6608;48.790;9.198;2023-07-20T12:57:11;103.22;;;64.82;;
13083;SDS011;6608;48.790;9.198;2023-07-20T12:59:40;147.73;;;70.47;;
13083;SDS011;6608;48.790;9.198;2023-07-20T13:02:06;112.60;;;66.35;;
13083;SDS011;6608;48.790;9.198;2023-07-20T13:04:33;143.85;;;69.88;;
13083;SDS011;6608;48.790;9.198;2023-07-20T13:06:59;131.20;;;68.55;;
13083;SDS011;6608;48.790;9.198;2023-07-20T13:09:26;151.68;;;72.28;;
13083;SDS011;6608;48.790;9.198;2023-07-20T13:11:54;141.80;;;70.50;;
13083;SDS011;6608;48.790;9.198;2023-07-20T13:14:22;90.85;;;62.13;;
13083;SDS011;6608;48.790;9.198;2023-07-20T13:16:49;94.78;;;62.92;;
13083;SDS011;6608;48.790;9.198;2023-07-20T13:19:15;94.18;;;62.83;;
13083;SDS011;6608;48.790;9.198;2023-07-20T13:21:42;114.47;;;67.28;;
13083;SDS011;6608;48.790;9.198;2023-07-20T13:24:08;127.78;;;67.25;;
13083;SDS011;6608;48.790;9.198;2023-07-20T13:26:35;146.63;;;70.17;;
13083;SDS011;6608;48.790;9.198;2023-07-20T13:29:03;127.85;;;68.53;;
13083;SDS011;6608;48.790;9.198;2023-07-20T13:31:29;138.73;;;68.93;;
13083;SDS011;6608;48.790;9.198;2023-07-20T13:33:56;138.65;;;70.10;;
13083;SDS011;6608;48.790;9.198;2023-07-20T13:36:23;136.57;;;69.03;;
13083;SDS011;6608;48.790;9.198;2023-07-20T13:38:50;118.65;;;66.55;;
13083;SDS011;6608;48.790;9.198;2023-07-20T13:41:18;147.00;;;69.37;;
13083;SDS011;6608;48.790;9.198;2023-07-20T13:43:45;158.17;;;71.87;;
13083;SDS011;6608;48.790;9.198;2023-07-20T13:46:14;150.70;;;70.73;;
13083;SDS011;6608;48.790;9.198;2023-07-20T13:48:44;137.47;;;69.23;;
13083;SDS011;6608;48.790;9.198;2023-07-20T13:51:11;158.23;;;71.17;;
13083;SDS011;6608;48.790;9.198;2023-07-20T13:53:37;152.23;;;70.73;;
13083;SDS011;6608;48.790;9.198;2023-07-20T13:56:04;114.30;;;65.47;;
13083;SDS011;6608;48.790;9.198;2023-07-20T13:58:30;112.03;;;64.70;;
13083;SDS011;6608;48.790;9.198;2023-07-20T14:00:56;155.40;;;71.60;;
13083;SDS011;6608;48.790;9.198;2023-07-20T14:03:24;93.03;;;63.00;;
13083;SDS011;6608;48.790;9.198;2023-07-20T14:05:51;98.13;;;65.70;;
13083;SDS011;6608;48.790;9.198;2023-07-20T14:08:17;145.53;;;69.53;;
13083;SDS011;6608;48.790;9.198;2023-07-20T14:10:44;143.27;;;69.17;;
13083;SDS011;6608;48.790;9.198;2023-07-20T14:13:10;148.17;;;70.30;;
13083;SDS011;6608;48.790;9.198;2023-07-20T14:15:37;159.90;;;71.43;;
13083;SDS011;6608;48.790;9.198;2023-07-20T14:18:03;152.23;;;70.27;;
13083;SDS011;6608;48.790;9.198;2023-07-20T14:20:34;154.90;;;70.97;;
13083;SDS011;6608;48.790;9.198;2023-07-20T14:23:00;157.57;;;71.17;;
13083;SDS011;6608;48.790;9.198;2023-07-20T14:25:27;96.47;;;62.30;;
13083;SDS011;6608;48.790;9.198;2023-07-20T14:27:55;170.97;;;71.87;;
13083;SDS011;6608;48.790;9.198;2023-07-20T14:30:37;166.90;;;72.60;;
13083;SDS011;6608;48.790;9.198;2023-07-20T14:33:31;138.60;;;67.90;;
13083;SDS011;6608;48.790;9.198;2023-07-20T14:35:59;91.03;;;61.75;;